Time;durP1;ratioP1;P1;durP2;ratioP2;P2;SDS_P1;SDS_P2;PMS_P1;PMS_P2;Temp;Humidity;BMP_temperature;BMP_pressure;BME280_temperature;BME280_humidity;BME280_pressure;Samples;Min_cycle;Max_cycle;Signal;HPM_P1;HPM_P2
2022/08/23 00:01:48;;;;;;;1.27;0.50;;;18.60;97.40;;;;;;5086615;28;20024;-84
2022/08/23 00:04:18;;;;;;;2.80;0.55;;;18.60;97.70;;;;;;5083626;28;20091;-83
2022/08/23 00:06:46;;;;;;;2.55;0.73;;;18.50;97.80;;;;;;5081294;28;20043;-84
2022/08/23 00:09:12;;;;;;;1.23;0.60;;;18.60;98.00;;;;;;5073676;28;20107;-84
2022/08/23 00:11:44;;;;;;;1.48;0.57;;;18.50;98.00;;;;;;5074045;28;20543;-83
2022/08/23 00:14:16;;;;;;;1.50;0.73;;;18.50;98.00;;;;;;5081772;28;20038;-83
2022/08/23 00:16:43;;;;;;;1.52;0.52;;;18.50;98.30;;;;;;5077809;28;20016;-83
2022/08/23 00:19:12;;;;;;;1.52;0.70;;;18.50;98.50;;;;;;5081718;28;20533;-84
2022/08/23 00:21:39;;;;;;;1.05;0.45;;;18.40;98.50;;;;;;5071031;28;20481;-84
2022/08/23 00:24:06;;;;;;;2.80;0.80;;;18.40;98.50;;;;;;5102382;28;20020;-84
2022/08/23 00:26:54;;;;;;;2.35;0.77;;;18.40;98.80;;;;;;5083977;28;20017;-84
2022/08/23 00:29:23;;;;;;;1.63;0.68;;;18.30;99.00;;;;;;5084310;28;20028;-83
2022/08/23 00:31:48;;;;;;;1.73;0.75;;;18.30;99.30;;;;;;5084032;28;20039;-83
2022/08/23 00:34:14;;;;;;;1.83;0.70;;;18.30;99.40;;;;;;5075589;28;20027;-84
2022/08/23 00:36:42;;;;;;;1.85;0.85;;;18.30;99.70;;;;;;5079868;28;20020;-85
2022/08/23 00:39:07;;;;;;;1.15;0.70;;;18.30;99.30;;;;;;5073837;28;20469;-84
2022/08/23 00:41:34;;;;;;;1.83;0.60;;;18.30;99.60;;;;;;5080362;28;20028;-83
2022/08/23 00:49:39;;;;;;;1.38;0.65;;;18.20;99.80;;;;;;5087392;28;20032;-83
2022/08/23 00:52:10;;;;;;;2.95;0.93;;;18.20;99.90;;;;;;5078149;28;20051;-84
2022/08/23 00:54:38;;;;;;;;;;;18.20;99.90;;;;;;5093992;28;20051;-83
2022/08/23 00:57:09;;;;;;;1.67;0.70;;;18.10;99.90;;;;;;5082567;28;19908;-84
2022/08/23 00:59:35;;;;;;;2.50;0.85;;;18.00;99.90;;;;;;5076461;28;20064;-84
2022/08/23 01:02:01;;;;;;;1.58;0.70;;;18.10;99.90;;;;;;5086435;28;20073;-84
2022/08/23 01:04:31;;;;;;;2.28;0.80;;;18.00;99.90;;;;;;5075852;28;20032;-84
2022/08/23 01:07:14;;;;;;;1.80;0.80;;;18.00;99.90;;;;;;5097409;28;20103;-83
2022/08/23 01:09:42;;;;;;;1.67;0.65;;;18.00;99.90;;;;;;5090014;28;20089;-83
2022/08/23 01:12:19;;;;;;;2.47;0.70;;;18.00;99.90;;;;;;5089902;28;20389;-83
2022/08/23 01:14:45;;;;;;;3.20;0.95;;;17.90;99.90;;;;;;5091133;28;20032;-82
2022/08/23 01:17:17;;;;;;;2.97;0.90;;;17.90;99.90;;;;;;5091738;28;20016;-83
2022/08/23 01:20:00;;;;;;;1.00;0.50;;;17.90;99.90;;;;;;5095953;28;20039;-84
2022/08/23 01:22:39;;;;;;;4.03;1.17;;;17.90;99.90;;;;;;5076799;28;20028;-82
2022/08/23 01:25:08;;;;;;;2.45;0.80;;;17.80;99.90;;;;;;5080046;28;20016;-83
2022/08/23 01:27:35;;;;;;;2.25;0.70;;;17.80;99.90;;;;;;5085017;28;20039;-82
2022/08/23 01:30:01;;;;;;;0.88;0.60;;;17.80;99.90;;;;;;5098724;28;20035;-83
2022/08/23 01:32:28;;;;;;;1.63;0.70;;;17.80;99.90;;;;;;5086150;28;20020;-83
2022/08/23 01:34:54;;;;;;;2.33;0.90;;;17.80;99.90;;;;;;5082682;28;20016;-83
2022/08/23 01:37:20;;;;;;;2.25;0.60;;;17.80;99.90;;;;;;5070226;28;20052;-83
2022/08/23 01:39:46;;;;;;;1.67;0.80;;;17.70;99.90;;;;;;5086897;28;20022;-83
2022/08/23 01:42:11;;;;;;;1.40;0.60;;;17.70;99.90;;;;;;5084519;28;20040;-84
2022/08/23 01:44:37;;;;;;;2.08;0.70;;;17.70;99.90;;;;;;5091205;28;20388;-84
2022/08/23 01:47:04;;;;;;;1.48;0.57;;;17.60;99.90;;;;;;5093754;28;20024;-83
2022/08/23 01:49:31;;;;;;;2.85;0.80;;;17.60;99.90;;;;;;5099074;28;20025;-81
2022/08/23 01:51:57;;;;;;;2.47;0.60;;;17.60;99.90;;;;;;5085905;28;20396;-82
2022/08/23 01:54:23;;;;;;;1.42;0.70;;;17.60;99.90;;;;;;5080967;28;20025;-82
2022/08/23 01:56:48;;;;;;;1.77;0.63;;;17.60;99.90;;;;;;5073995;28;20043;-82
2022/08/23 01:59:14;;;;;;;2.00;0.68;;;17.50;99.90;;;;;;5082024;28;20093;-82
2022/08/23 02:01:39;;;;;;;1.20;0.70;;;17.50;99.90;;;;;;5077152;28;20016;-82
2022/08/23 02:04:05;;;;;;;1.58;0.80;;;17.50;99.90;;;;;;5066420;28;20032;-82
2022/08/23 02:06:32;;;;;;;1.65;0.77;;;17.50;99.90;;;;;;5082070;28;20114;-81
2022/08/23 02:09:00;;;;;;;2.05;0.93;;;17.50;99.90;;;;;;5085757;28;20064;-82
2022/08/23 02:11:29;;;;;;;2.15;0.82;;;17.50;99.90;;;;;;5098361;28;20402;-82
2022/08/23 02:13:57;;;;;;;4.18;1.13;;;17.40;99.90;;;;;;5076470;28;20031;-82
2022/08/23 02:16:30;;;;;;;1.95;0.80;;;17.40;99.90;;;;;;5083672;28;20093;-81
2022/08/23 02:18:56;;;;;;;1.63;0.80;;;17.40;99.90;;;;;;5078670;28;20035;-81
2022/08/23 02:21:23;;;;;;;2.17;0.82;;;17.40;99.90;;;;;;5076033;28;20044;-83
2022/08/23 02:23:50;;;;;;;2.55;0.60;;;17.40;99.90;;;;;;5099438;28;20375;-84
2022/08/23 02:26:17;;;;;;;1.67;0.65;;;17.40;99.90;;;;;;5082051;28;20107;-82
2022/08/23 02:28:42;;;;;;;3.67;1.05;;;17.30;99.90;;;;;;5096656;28;20120;-84
2022/08/23 02:31:08;;;;;;;3.15;0.80;;;17.30;99.90;;;;;;5084491;28;20499;-84
2022/08/23 02:33:33;;;;;;;1.60;0.75;;;17.30;99.90;;;;;;5094036;28;20017;-84
2022/08/23 02:36:00;;;;;;;1.58;0.88;;;17.30;99.90;;;;;;5086381;28;20216;-84
2022/08/23 02:38:25;;;;;;;1.70;0.80;;;17.20;99.90;;;;;;5080559;28;20634;-82
2022/08/23 02:40:51;;;;;;;3.40;0.75;;;17.20;99.90;;;;;;5082775;28;20030;-83
2022/08/23 02:43:17;;;;;;;2.10;0.85;;;17.20;99.90;;;;;;5086565;28;20020;-84
2022/08/23 02:45:44;;;;;;;1.63;0.70;;;17.10;99.90;;;;;;5084148;28;20055;-83
2022/08/23 02:48:10;;;;;;;1.17;0.68;;;17.10;99.90;;;;;;5074573;28;20020;-84
2022/08/23 02:50:35;;;;;;;1.50;0.70;;;17.10;99.90;;;;;;5083092;28;20070;-84
2022/08/23 02:53:01;;;;;;;1.40;0.70;;;17.10;99.90;;;;;;5087494;28;20446;-84
2022/08/23 02:55:27;;;;;;;2.85;1.10;;;17.10;99.90;;;;;;5074049;28;20020;-83
2022/08/23 02:57:54;;;;;;;2.50;1.10;;;17.00;99.90;;;;;;5090831;28;20480;-83
2022/08/23 03:00:20;;;;;;;2.25;1.05;;;17.10;99.90;;;;;;5082332;28;20059;-84
2022/08/23 03:02:46;;;;;;;1.38;0.80;;;17.00;99.90;;;;;;5082844;28;20021;-83
2022/08/23 03:05:13;;;;;;;2.42;0.73;;;16.90;99.90;;;;;;5083624;22;20057;-82
2022/08/23 03:07:40;;;;;;;2.00;0.70;;;16.90;99.90;;;;;;5038455;28;20030;-83
2022/08/23 03:10:07;;;;;;;2.88;1.02;;;16.90;99.90;;;;;;5028177;28;20018;-82
2022/08/23 03:12:32;;;;;;;5.38;0.98;;;16.90;99.90;;;;;;5036931;28;20056;-81
2022/08/23 03:14:58;;;;;;;1.98;0.90;;;16.90;99.90;;;;;;5037554;28;21284;-82
2022/08/23 03:17:24;;;;;;;3.65;0.90;;;16.80;99.90;;;;;;5052622;28;20025;-82
2022/08/23 03:19:51;;;;;;;2.42;1.00;;;16.80;99.90;;;;;;5068436;23;20043;-81
2022/08/23 03:22:17;;;;;;;2.42;1.00;;;16.80;99.90;;;;;;5042042;28;20419;-82
2022/08/23 03:24:43;;;;;;;2.95;1.17;;;16.80;99.90;;;;;;5050564;28;20036;-81
2022/08/23 03:27:09;;;;;;;1.67;0.75;;;16.80;99.90;;;;;;5039858;28;20017;-82
2022/08/23 03:29:36;;;;;;;2.15;0.88;;;16.80;99.90;;;;;;5051157;28;20025;-81
2022/08/23 03:32:03;;;;;;;1.92;0.90;;;16.80;99.90;;;;;;5051237;28;20013;-82
2022/08/23 03:34:29;;;;;;;2.22;0.93;;;16.80;99.90;;;;;;5038310;28;20032;-82
2022/08/23 03:36:55;;;;;;;1.85;1.00;;;16.80;99.90;;;;;;5050408;28;20024;-82
2022/08/23 03:39:20;;;;;;;2.17;1.02;;;16.80;99.90;;;;;;5041401;28;20017;-82
2022/08/23 03:41:46;;;;;;;3.08;1.10;;;16.80;99.90;;;;;;5050527;28;20104;-82
2022/08/23 03:44:12;;;;;;;3.30;1.10;;;16.80;99.90;;;;;;5050839;28;20051;-81
2022/08/23 03:46:38;;;;;;;2.47;1.13;;;16.70;99.90;;;;;;5050332;28;20086;-82
2022/08/23 03:49:04;;;;;;;2.30;0.98;;;16.80;99.90;;;;;;5037859;28;20040;-82
2022/08/23 03:51:30;;;;;;;2.67;0.98;;;16.80;99.90;;;;;;5059210;28;20025;-82
2022/08/23 03:53:57;;;;;;;2.22;1.05;;;16.70;99.90;;;;;;5058942;28;20064;-82
2022/08/23 03:56:26;;;;;;;2.53;1.00;;;16.70;99.90;;;;;;5050495;28;20061;-82
2022/08/23 03:58:52;;;;;;;2.58;1.15;;;16.70;99.90;;;;;;5050146;28;20021;-82
2022/08/23 04:01:18;;;;;;;4.13;1.05;;;16.80;99.90;;;;;;5050536;28;20184;-82
2022/08/23 04:03:44;;;;;;;2.55;0.82;;;16.70;99.90;;;;;;5050656;28;20027;-82
2022/08/23 04:06:10;;;;;;;2.53;0.90;;;16.70;99.90;;;;;;5050392;28;20029;-82
2022/08/23 04:08:36;;;;;;;2.78;0.95;;;16.70;99.90;;;;;;5049984;28;20029;-81
2022/08/23 04:11:03;;;;;;;1.55;0.85;;;16.70;99.90;;;;;;5040111;28;20044;-81
2022/08/23 04:13:29;;;;;;;2.28;0.93;;;16.70;99.90;;;;;;5059529;28;20086;-81
2022/08/23 04:15:55;;;;;;;2.13;1.05;;;16.70;99.90;;;;;;5051910;28;20415;-81
2022/08/23 04:18:21;;;;;;;1.40;0.88;;;16.70;99.90;;;;;;5055849;28;20036;-82
2022/08/23 04:20:48;;;;;;;2.63;0.82;;;16.70;99.90;;;;;;5044939;28;20025;-81
2022/08/23 04:23:14;;;;;;;2.50;0.95;;;16.60;99.90;;;;;;5054486;28;20024;-82
2022/08/23 04:25:42;;;;;;;2.97;1.10;;;16.60;99.90;;;;;;5043553;28;20025;-82
2022/08/23 04:28:08;;;;;;;2.97;0.90;;;16.60;99.90;;;;;;5054257;28;20017;-82
2022/08/23 04:30:33;;;;;;;2.15;0.80;;;16.60;99.90;;;;;;5054882;28;20028;-81
2022/08/23 04:32:59;;;;;;;1.75;0.70;;;16.60;99.90;;;;;;5053882;28;20378;-81
2022/08/23 04:35:25;;;;;;;2.30;1.00;;;16.60;99.90;;;;;;5053914;28;20108;-81
2022/08/23 04:37:51;;;;;;;2.08;0.93;;;16.60;99.90;;;;;;5054174;28;20062;-81
2022/08/23 04:43:01;;;;;;;2.00;0.85;;;16.60;99.90;;;;;;5053795;28;20112;-83
2022/08/23 04:45:27;;;;;;;2.25;1.00;;;16.50;99.90;;;;;;5053811;28;20065;-82
2022/08/23 04:47:53;;;;;;;3.30;1.08;;;16.50;99.90;;;;;;5059283;28;20059;-81
2022/08/23 04:50:19;;;;;;;1.92;1.05;;;17.00;99.90;;;;;;5054367;28;20542;-81
2022/08/23 04:52:44;;;;;;;2.38;0.90;;;16.50;99.90;;;;;;5042354;28;20029;-82
2022/08/23 04:55:11;;;;;;;2.53;1.10;;;16.60;99.90;;;;;;5061430;28;20021;-81
2022/08/23 04:57:37;;;;;;;2.28;1.08;;;16.60;99.90;;;;;;5053896;28;20021;-81
2022/08/23 05:00:04;;;;;;;1.08;0.70;;;16.60;99.90;;;;;;5053680;28;20075;-81
2022/08/23 05:02:30;;;;;;;2.47;0.80;;;16.60;99.90;;;;;;5059829;28;20017;-82
2022/08/23 05:04:56;;;;;;;2.20;0.90;;;16.60;99.90;;;;;;5061553;28;20028;-81
2022/08/23 05:07:22;;;;;;;2.58;0.98;;;16.70;99.90;;;;;;5056966;28;20078;-81
2022/08/23 05:09:47;;;;;;;1.83;0.80;;;16.70;99.90;;;;;;5050422;28;20013;-81
2022/08/23 05:12:13;;;;;;;2.47;0.90;;;16.70;99.90;;;;;;5053592;28;20033;-81
2022/08/23 05:14:39;;;;;;;3.08;1.10;;;16.70;99.90;;;;;;5036015;28;20393;-81
2022/08/23 05:17:04;;;;;;;1.92;0.80;;;16.80;99.90;;;;;;5045651;28;20102;-81
2022/08/23 05:19:30;;;;;;;1.67;0.70;;;16.70;99.90;;;;;;5040361;28;20504;-81
2022/08/23 05:21:55;;;;;;;1.55;0.70;;;16.80;99.90;;;;;;5053758;28;20032;-81
2022/08/23 05:24:21;;;;;;;3.63;0.95;;;16.80;99.90;;;;;;5053748;28;20036;-82
2022/08/23 05:26:47;;;;;;;2.33;1.02;;;16.90;99.90;;;;;;5036418;28;20560;-82
2022/08/23 05:29:12;;;;;;;2.83;1.17;;;16.90;99.90;;;;;;5048120;28;20520;-81
2022/08/23 05:31:38;;;;;;;3.97;1.00;;;17.00;99.90;;;;;;5053059;28;20025;-81
2022/08/23 05:34:04;;;;;;;2.42;1.00;;;17.00;99.90;;;;;;5063626;28;20112;-81
2022/08/23 05:36:29;;;;;;;2.35;0.93;;;17.00;99.90;;;;;;5056437;28;20699;-82
2022/08/23 05:38:55;;;;;;;4.15;1.27;;;17.00;99.90;;;;;;5061301;28;20025;-82
2022/08/23 05:41:20;;;;;;;2.55;1.00;;;17.00;99.90;;;;;;5064002;28;20485;-82
2022/08/23 05:43:47;;;;;;;2.13;1.00;;;17.00;99.90;;;;;;5044848;28;20013;-82
2022/08/23 05:46:16;;;;;;;2.60;0.98;;;17.10;99.90;;;;;;5064172;28;20101;-82
2022/08/23 05:48:45;;;;;;;2.33;1.08;;;17.20;99.90;;;;;;5052560;28;20090;-82
2022/08/23 05:51:21;;;;;;;1.98;0.90;;;17.10;99.90;;;;;;5072376;28;20032;-81
2022/08/23 05:53:48;;;;;;;3.45;1.02;;;17.20;99.90;;;;;;5063310;28;20429;-82
2022/08/23 05:56:20;;;;;;;2.08;1.05;;;17.40;99.90;;;;;;5061829;28;20064;-83
2022/08/23 05:58:46;;;;;;;;;;;17.50;99.90;;;;;;5053247;28;20021;-82
2022/08/23 06:01:13;;;;;;;1.83;0.85;;;17.40;99.90;;;;;;5047853;28;19911;-82
2022/08/23 06:03:39;;;;;;;2.67;1.00;;;17.30;99.90;;;;;;5051892;28;20025;-82
2022/08/23 06:06:05;;;;;;;3.00;1.10;;;17.20;99.90;;;;;;5052377;28;20444;-82
2022/08/23 06:08:32;;;;;;;2.85;1.38;;;17.20;99.90;;;;;;5052335;28;20025;-82
2022/08/23 06:11:03;;;;;;;3.75;1.20;;;17.30;99.90;;;;;;5052508;28;20100;-82
2022/08/23 06:13:29;;;;;;;2.07;1.10;;;17.40;99.90;;;;;;5051331;28;20033;-82
2022/08/23 06:15:56;;;;;;;2.45;1.10;;;17.50;99.90;;;;;;5039427;28;20493;-82
2022/08/23 06:18:22;;;;;;;4.93;1.60;;;17.60;99.90;;;;;;5051838;28;20029;-82
2022/08/23 06:20:48;;;;;;;2.17;1.08;;;17.60;99.90;;;;;;5046207;28;20025;-82
2022/08/23 06:23:13;;;;;;;2.58;1.02;;;17.70;99.90;;;;;;5053204;28;20027;-82
2022/08/23 06:25:39;;;;;;;3.60;1.15;;;17.90;99.90;;;;;;5052530;28;21004;-82
2022/08/23 06:28:05;;;;;;;3.22;1.35;;;18.20;99.90;;;;;;5064285;28;20009;-82
2022/08/23 06:30:31;;;;;;;2.83;1.33;;;18.20;99.90;;;;;;5055403;28;20033;-82
2022/08/23 06:32:56;;;;;;;2.95;1.33;;;18.50;99.90;;;;;;5058633;28;20029;-83
2022/08/23 06:35:22;;;;;;;3.15;1.40;;;18.60;99.90;;;;;;5032401;28;20120;-83
2022/08/23 06:37:48;;;;;;;5.53;1.55;;;18.70;99.90;;;;;;5056056;28;20012;-83
2022/08/23 06:40:14;;;;;;;3.63;1.25;;;18.70;99.90;;;;;;5056615;28;20429;-83
2022/08/23 06:42:39;;;;;;;2.92;1.20;;;18.80;99.90;;;;;;5065667;28;20112;-83
2022/08/23 06:45:05;;;;;;;2.22;1.25;;;19.10;99.90;;;;;;5050580;28;20021;-83
2022/08/23 06:47:31;;;;;;;3.25;1.00;;;19.00;99.90;;;;;;5067921;28;20119;-82
2022/08/23 06:49:57;;;;;;;2.28;1.17;;;19.10;99.90;;;;;;5061492;28;20441;-82
2022/08/23 06:52:23;;;;;;;2.72;1.23;;;19.00;99.90;;;;;;5049897;28;20033;-82
2022/08/23 06:54:49;;;;;;;4.13;1.50;;;19.00;99.90;;;;;;5049049;28;20032;-81
2022/08/23 06:57:14;;;;;;;2.50;1.10;;;19.00;99.90;;;;;;5042344;28;20024;-82
2022/08/23 06:59:40;;;;;;;3.03;1.05;;;19.30;99.90;;;;;;5060406;28;20021;-82
2022/08/23 07:02:07;;;;;;;4.15;1.30;;;19.30;99.90;;;;;;5060566;28;20363;-82
2022/08/23 07:04:37;;;;;;;3.97;1.20;;;19.40;99.90;;;;;;5061268;28;20016;-83
2022/08/23 07:07:04;;;;;;;3.17;1.20;;;19.50;99.90;;;;;;5061140;28;20020;-82
2022/08/23 07:09:31;;;;;;;2.97;1.40;;;19.50;99.90;;;;;;5041868;28;20103;-82
2022/08/23 07:11:58;;;;;;;3.47;1.40;;;19.50;99.90;;;;;;5051320;28;20533;-82
2022/08/23 07:14:24;;;;;;;4.50;1.33;;;19.50;99.90;;;;;;5051370;28;20055;-82
2022/08/23 07:16:52;;;;;;;3.53;1.25;;;19.50;99.90;;;;;;5057582;28;20021;-82
2022/08/23 07:19:21;;;;;;;2.78;1.30;;;19.60;99.90;;;;;;5039480;28;20037;-82
2022/08/23 07:21:48;;;;;;;2.50;1.17;;;19.80;99.90;;;;;;5051054;28;20033;-82
2022/08/23 07:24:14;;;;;;;2.85;1.10;;;19.80;99.90;;;;;;5038311;28;20028;-82
2022/08/23 07:26:41;;;;;;;2.85;1.13;;;19.80;99.90;;;;;;5034107;28;20068;-82
2022/08/23 07:29:10;;;;;;;3.00;1.30;;;19.80;99.90;;;;;;5063151;28;20404;-82
2022/08/23 07:31:40;;;;;;;2.30;0.90;;;19.70;99.90;;;;;;5059688;28;20470;-82
2022/08/23 07:34:06;;;;;;;2.63;1.20;;;20.10;99.90;;;;;;5047170;28;20036;-82
2022/08/23 07:36:33;;;;;;;3.55;1.20;;;20.00;99.90;;;;;;5031428;28;20032;-82
2022/08/23 07:38:59;;;;;;;3.20;1.13;;;20.30;99.90;;;;;;5051346;28;20023;-82
2022/08/23 07:41:29;;;;;;;2.92;1.30;;;20.40;99.90;;;;;;5051147;28;20093;-82
2022/08/23 07:43:57;;;;;;;1.90;1.05;;;20.60;99.90;;;;;;5054557;28;20029;-82
2022/08/23 07:46:24;;;;;;;1.85;0.90;;;20.80;99.90;;;;;;5042511;28;20048;-82
2022/08/23 07:48:51;;;;;;;2.13;0.82;;;21.10;99.90;;;;;;5035320;28;20060;-82
2022/08/23 07:51:17;;;;;;;3.33;0.95;;;21.60;99.90;;;;;;5042133;28;20052;-83
2022/08/23 07:53:44;;;;;;;2.25;1.00;;;21.50;99.90;;;;;;5039960;28;20557;-82
2022/08/23 07:56:12;;;;;;;3.35;1.00;;;21.50;99.90;;;;;;5051250;28;20021;-82
2022/08/23 07:58:38;;;;;;;2.17;0.90;;;21.60;99.90;;;;;;5050733;28;20029;-82
2022/08/23 08:01:22;;;;;;;2.35;0.88;;;21.70;99.90;;;;;;5050642;28;20028;-82
2022/08/23 08:03:51;;;;;;;2.13;0.80;;;21.80;99.90;;;;;;5038855;28;20024;-82
2022/08/23 08:06:21;;;;;;;2.35;1.08;;;22.00;99.90;;;;;;5042013;28;20434;-83
2022/08/23 08:08:47;;;;;;;2.83;1.20;;;22.30;99.90;;;;;;5050385;28;20017;-83
2022/08/23 08:11:15;;;;;;;2.60;0.90;;;22.40;99.90;;;;;;5049136;28;20063;-82
2022/08/23 08:13:42;;;;;;;3.60;1.10;;;22.20;99.90;;;;;;5051754;28;20561;-82
2022/08/23 08:16:10;;;;;;;2.63;0.95;;;22.30;99.90;;;;;;5050558;28;20091;-83
2022/08/23 08:18:36;;;;;;;2.20;0.68;;;22.50;99.90;;;;;;5053232;28;20029;-83
2022/08/23 08:21:03;;;;;;;2.30;0.98;;;22.50;99.00;;;;;;5060324;28;20017;-82
2022/08/23 08:23:29;;;;;;;2.42;0.77;;;22.70;99.30;;;;;;5050802;28;20028;-82
2022/08/23 08:26:04;;;;;;;3.83;0.82;;;22.80;99.00;;;;;;5057613;28;20021;-82
2022/08/23 08:28:30;;;;;;;2.13;0.93;;;23.00;98.60;;;;;;5037755;28;20407;-82
2022/08/23 08:30:57;;;;;;;3.42;1.38;;;23.20;98.40;;;;;;5059407;28;20025;-83
2022/08/23 08:33:27;;;;;;;2.45;0.73;;;23.40;98.50;;;;;;5050544;28;20021;-82
2022/08/23 08:35:53;;;;;;;2.30;1.20;;;23.30;97.90;;;;;;5043482;28;20082;-82
2022/08/23 08:38:19;;;;;;;4.03;0.80;;;23.40;97.80;;;;;;5056474;28;20107;-82
2022/08/23 08:40:58;;;;;;;3.00;0.70;;;23.70;97.70;;;;;;5045683;28;20101;-83
2022/08/23 08:43:35;;;;;;;2.75;0.75;;;23.60;97.40;;;;;;5046024;28;20052;-83
2022/08/23 08:46:11;;;;;;;1.95;0.70;;;23.70;96.80;;;;;;5049193;28;20478;-82
2022/08/23 08:48:41;;;;;;;1.35;0.50;;;24.10;96.90;;;;;;5039976;28;20112;-82
2022/08/23 08:51:30;;;;;;;2.20;0.73;;;24.00;96.10;;;;;;5049250;28;20036;-82
2022/08/23 08:53:57;;;;;;;2.35;0.77;;;24.10;96.20;;;;;;5043885;28;20264;-82
2022/08/23 08:56:28;;;;;;;1.90;0.73;;;24.40;95.50;;;;;;5048454;28;20029;-82
2022/08/23 08:59:00;;;;;;;1.70;0.70;;;24.40;95.20;;;;;;5040559;28;20025;-82
2022/08/23 09:01:28;;;;;;;1.77;0.70;;;24.60;94.60;;;;;;5036471;28;20031;-82
2022/08/23 09:03:55;;;;;;;1.27;0.70;;;24.70;94.10;;;;;;5053302;28;20009;-82
2022/08/23 09:06:27;;;;;;;1.58;0.73;;;24.70;94.70;;;;;;5052901;28;20025;-82
2022/08/23 09:09:22;;;;;;;1.50;0.65;;;24.90;94.10;;;;;;5039467;28;20025;-82
2022/08/23 09:12:21;;;;;;;1.98;0.75;;;25.10;93.10;;;;;;5029318;28;20116;-82
2022/08/23 09:14:56;;;;;;;2.05;0.80;;;25.30;92.50;;;;;;5052719;28;20017;-82
2022/08/23 09:17:43;;;;;;;1.70;0.55;;;25.40;93.60;;;;;;5048045;28;20405;-82
2022/08/23 09:20:12;;;;;;;3.50;0.65;;;25.50;93.00;;;;;;5079546;22;20067;-85
2022/08/23 09:22:42;;;;;;;1.05;0.50;;;25.60;90.80;;;;;;5074153;28;20017;-85
2022/08/23 09:25:10;;;;;;;1.90;0.50;;;25.70;91.70;;;;;;5065766;28;20040;-85
2022/08/23 09:27:37;;;;;;;1.98;0.60;;;25.90;91.80;;;;;;5069655;28;20055;-85
2022/08/23 09:30:04;;;;;;;1.58;0.57;;;26.10;90.50;;;;;;5073952;28;20553;-85
2022/08/23 09:32:36;;;;;;;2.53;0.68;;;25.90;87.50;;;;;;5066971;28;20580;-85
2022/08/23 09:35:19;;;;;;;1.30;0.40;;;26.00;89.30;;;;;;5060253;28;20119;-85
2022/08/23 09:37:48;;;;;;;1.30;0.50;;;26.20;89.50;;;;;;5075153;28;20097;-85
2022/08/23 09:40:44;;;;;;;2.28;0.52;;;26.50;88.60;;;;;;5074701;28;20026;-85
2022/08/23 09:43:19;;;;;;;0.77;0.40;;;26.60;87.60;;;;;;5078851;28;20055;-85
2022/08/23 09:45:47;;;;;;;2.28;0.82;;;26.50;86.00;;;;;;5069803;28;20032;-86
2022/08/23 09:48:28;;;;;;;1.05;0.30;;;26.40;85.00;;;;;;5061674;28;20480;-85
2022/08/23 09:50:54;;;;;;;1.95;0.50;;;26.40;85.40;;;;;;5072781;28;20080;-85
2022/08/23 09:53:26;;;;;;;1.40;0.60;;;26.40;82.50;;;;;;5072321;28;20033;-85
2022/08/23 09:55:56;;;;;;;1.55;0.60;;;26.50;83.20;;;;;;5049000;28;20048;-85
2022/08/23 09:58:27;;;;;;;1.63;0.50;;;26.60;84.50;;;;;;5074538;28;20032;-85
2022/08/23 10:01:16;;;;;;;1.13;0.50;;;26.90;84.80;;;;;;5056885;28;20111;-85
2022/08/23 10:03:42;;;;;;;1.00;0.40;;;27.30;83.00;;;;;;5073273;28;20063;-85
2022/08/23 10:06:14;;;;;;;2.85;0.50;;;27.50;82.30;;;;;;5066187;28;20036;-85
2022/08/23 10:08:52;;;;;;;1.33;0.40;;;27.50;79.80;;;;;;5075943;28;20029;-86
2022/08/23 10:11:24;;;;;;;2.50;0.60;;;27.20;78.60;;;;;;5083956;28;20112;-84
2022/08/23 10:13:51;;;;;;;0.90;0.30;;;27.30;77.80;;;;;;5070323;28;20034;-85
2022/08/23 10:16:37;;;;;;;2.30;0.50;;;27.20;76.40;;;;;;5063878;28;20070;-85
2022/08/23 10:19:24;;;;;;;1.48;0.60;;;27.30;76.80;;;;;;5068089;28;20024;-85
2022/08/23 10:22:07;;;;;;;1.92;0.43;;;27.20;76.10;;;;;;5064594;28;20024;-85
2022/08/23 10:24:38;;;;;;;0.90;0.40;;;27.30;76.40;;;;;;5064023;28;20017;-85
2022/08/23 10:30:17;;;;;;;2.40;0.73;;;27.60;76.10;;;;;;5066443;28;20049;-85
2022/08/23 10:33:11;;;;;;;1.20;0.38;;;27.60;75.20;;;;;;5072988;28;20115;-85
2022/08/23 10:35:55;;;;;;;1.33;0.50;;;27.70;74.50;;;;;;5066147;28;20025;-85
2022/08/23 10:38:27;;;;;;;1.05;0.43;;;28.00;73.90;;;;;;5075911;28;20025;-86
2022/08/23 10:40:53;;;;;;;1.50;0.60;;;28.40;74.20;;;;;;5059634;28;20391;-86
2022/08/23 10:43:35;;;;;;;1.38;0.50;;;27.90;73.30;;;;;;5055976;28;20480;-86
2022/08/23 10:46:01;;;;;;;1.10;0.32;;;28.00;74.40;;;;;;5068049;28;20033;-85
2022/08/23 10:48:35;;;;;;;1.65;0.50;;;28.30;73.30;;;;;;5071710;28;20473;-85
2022/08/23 10:51:16;;;;;;;1.55;0.45;;;28.50;71.60;;;;;;5061040;28;20031;-86
2022/08/23 10:53:46;;;;;;;1.35;0.50;;;28.80;70.20;;;;;;5070828;28;20099;-86
2022/08/23 10:56:18;;;;;;;0.65;0.30;;;28.80;70.50;;;;;;5071052;28;20031;-85
2022/08/23 10:58:56;;;;;;;1.15;0.40;;;29.00;70.80;;;;;;5070852;28;20025;-86
2022/08/23 11:01:47;;;;;;;1.92;0.40;;;29.00;68.00;;;;;;5070155;28;20087;-86
2022/08/23 11:04:25;;;;;;;2.08;0.47;;;29.00;70.40;;;;;;5060062;28;20020;-86
2022/08/23 11:06:54;;;;;;;0.60;0.30;;;29.20;69.20;;;;;;5058066;28;20525;-86
2022/08/23 11:09:20;;;;;;;1.33;0.57;;;29.50;68.60;;;;;;5071292;28;20020;-86
2022/08/23 11:11:48;;;;;;;1.20;0.50;;;29.50;67.80;;;;;;5053396;28;20036;-86
2022/08/23 11:14:37;;;;;;;1.27;0.30;;;29.80;66.70;;;;;;5062488;28;20028;-86
2022/08/23 11:17:11;;;;;;;1.20;0.40;;;29.70;65.20;;;;;;5074677;28;20392;-86
2022/08/23 11:19:56;;;;;;;0.60;0.30;;;30.10;66.50;;;;;;5070210;28;20033;-86
2022/08/23 11:22:23;;;;;;;1.02;0.30;;;30.00;66.20;;;;;;5070414;28;20044;-86
2022/08/23 11:25:03;;;;;;;0.98;0.50;;;29.50;65.20;;;;;;5070102;28;20024;-87
2022/08/23 11:27:40;;;;;;;1.90;0.40;;;29.40;66.80;;;;;;5059076;28;20149;-86
2022/08/23 11:30:30;;;;;;;1.33;0.50;;;29.60;66.60;;;;;;5051619;28;20120;-86
2022/08/23 11:33:12;;;;;;;0.77;0.30;;;29.80;66.90;;;;;;5070794;28;20028;-86
2022/08/23 11:35:42;;;;;;;1.08;0.57;;;29.80;66.50;;;;;;5064557;28;20696;-86
2022/08/23 11:38:08;;;;;;;0.70;0.32;;;30.20;67.10;;;;;;5058956;28;20031;-86
2022/08/23 11:40:49;;;;;;;2.58;0.63;;;30.50;67.00;;;;;;5057672;28;20037;-86
2022/08/23 11:43:34;;;;;;;1.92;0.60;;;30.60;66.10;;;;;;5051351;28;20059;-86
2022/08/23 11:46:24;;;;;;;1.98;0.40;;;30.60;64.30;;;;;;5065027;28;20025;-85
2022/08/23 11:49:33;;;;;;;1.58;0.43;;;30.80;65.60;;;;;;5053240;28;20043;-86
2022/08/23 11:52:23;;;;;;;0.90;0.47;;;31.00;64.50;;;;;;5052981;28;20024;-86
2022/08/23 11:55:13;;;;;;;1.45;0.55;;;31.00;64.50;;;;;;5070378;28;20017;-86
2022/08/23 11:58:04;;;;;;;1.08;0.40;;;30.60;64.80;;;;;;5061037;28;20028;-86
2022/08/23 12:00:52;;;;;;;2.58;0.57;;;31.00;64.10;;;;;;5058657;28;20440;-86
2022/08/23 12:03:55;;;;;;;1.02;0.50;;;31.40;63.10;;;;;;5065178;28;20484;-86
2022/08/23 12:06:21;;;;;;;1.45;0.50;;;31.60;63.10;;;;;;5031649;28;20044;-86
2022/08/23 12:08:46;;;;;;;1.15;0.43;;;31.70;62.40;;;;;;5062651;28;20397;-86
2022/08/23 12:11:14;;;;;;;0.77;0.40;;;31.70;62.70;;;;;;5062208;28;20079;-86
2022/08/23 12:13:47;;;;;;;0.73;0.30;;;31.30;61.80;;;;;;5059489;28;20436;-86
2022/08/23 12:16:12;;;;;;;1.25;0.38;;;31.20;62.50;;;;;;5066333;28;20125;-86
2022/08/23 12:18:45;;;;;;;0.80;0.40;;;31.30;62.60;;;;;;5064828;28;20484;-86
2022/08/23 12:21:23;;;;;;;1.00;0.40;;;31.50;62.40;;;;;;5060425;28;20033;-86
2022/08/23 12:23:54;;;;;;;1.38;0.32;;;31.60;62.70;;;;;;5070771;28;20071;-86
2022/08/23 12:26:51;;;;;;;0.70;0.30;;;31.90;64.00;;;;;;5073509;28;20028;-86
2022/08/23 12:29:32;;;;;;;1.73;0.50;;;31.90;61.80;;;;;;5070511;28;20021;-87
2022/08/23 12:31:57;;;;;;;;;;;32.00;62.20;;;;;;5059284;28;20063;-86
2022/08/23 12:34:47;;;;;;;1.55;0.47;;;32.20;62.60;;;;;;5059212;28;20317;-86
2022/08/23 12:37:31;;;;;;;0.95;0.40;;;32.30;60.10;;;;;;5066071;28;20451;-86
2022/08/23 12:40:00;;;;;;;1.42;0.50;;;32.20;60.80;;;;;;5073368;28;20024;-86
2022/08/23 12:42:28;;;;;;;0.80;0.30;;;32.30;60.50;;;;;;5059709;28;20021;-86
2022/08/23 12:45:18;;;;;;;1.25;0.50;;;32.30;60.40;;;;;;5073050;28;20072;-86
2022/08/23 12:47:56;;;;;;;2.13;0.30;;;32.30;59.80;;;;;;5074528;28;20024;-86
2022/08/23 12:50:37;;;;;;;0.82;0.43;;;32.40;59.90;;;;;;5067071;28;20031;-86
2022/08/23 12:53:07;;;;;;;1.50;0.60;;;32.20;60.30;;;;;;5066643;28;20456;-86
2022/08/23 12:55:41;;;;;;;1.25;0.40;;;32.30;61.00;;;;;;5064898;28;20032;-87
2022/08/23 12:58:08;;;;;;;1.52;0.60;;;32.40;60.90;;;;;;5064319;28;20016;-87
2022/08/23 13:00:42;;;;;;;2.30;0.50;;;32.30;60.30;;;;;;5073833;28;20025;-87
2022/08/23 13:03:22;;;;;;;1.52;0.40;;;32.40;60.40;;;;;;5073663;28;20570;-87
2022/08/23 13:05:56;;;;;;;1.35;0.47;;;32.10;60.50;;;;;;5066550;28;20074;-86
2022/08/23 13:08:42;;;;;;;1.63;0.60;;;32.00;62.30;;;;;;5077930;28;20477;-86
2022/08/23 13:11:09;;;;;;;0.88;0.50;;;32.10;60.80;;;;;;5084222;28;20024;-86
2022/08/23 13:13:41;;;;;;;0.73;0.30;;;31.70;60.30;;;;;;5068163;28;20074;-86
2022/08/23 13:16:31;;;;;;;1.33;0.50;;;31.80;61.30;;;;;;5071096;28;20029;-86